Time;durP1;ratioP1;P1;durP2;ratioP2;P2;SDS_P1;SDS_P2;PMS_P1;PMS_P2;Temp;Humidity;BMP_temperature;BMP_pressure;BME280_temperature;BME280_humidity;BME280_pressure;Samples;Min_cycle;Max_cycle;Signal;HPM_P1;HPM_P2
2022/11/18 00:01:16;;;;;;;29.75;21.08;;;9.80;99.90;;;;;;5024926;28;20140;-55
2022/11/18 00:03:43;;;;;;;34.15;21.92;;;9.80;99.90;;;;;;5024735;28;20099;-56
2022/11/18 00:06:14;;;;;;;38.08;23.10;;;9.90;99.90;;;;;;5008471;28;20065;-52
2022/11/18 00:08:40;;;;;;;41.43;27.77;;;;;;;;;;5026176;28;20038;-53
2022/11/18 00:11:08;;;;;;;44.92;29.17;;;10.30;99.90;;;;;;5020635;28;20013;-52
2022/11/18 00:16:20;;;;;;;54.20;37.30;;;10.40;99.90;;;;;;5028565;28;20036;-55
2022/11/18 00:18:45;;;;;;;74.65;46.15;;;10.70;99.90;;;;;;5013767;28;20140;-55
2022/11/18 00:21:11;;;;;;;82.20;52.35;;;10.60;99.90;;;;;;5018783;28;20041;-55
2022/11/18 00:23:38;;;;;;;58.55;37.08;;;10.60;99.90;;;;;;5025720;28;20393;-53
2022/11/18 00:26:12;;;;;;;54.13;36.35;;;10.30;99.90;;;;;;5007199;28;20116;-55
2022/11/18 00:28:38;;;;;;;52.38;35.30;;;10.10;99.90;;;;;;5009159;28;20026;-53
2022/11/18 00:31:10;;;;;;;51.78;35.97;;;10.40;99.90;;;;;;5005515;28;20444;-53
2022/11/18 00:33:36;;;;;;;55.45;34.42;;;10.40;99.90;;;;;;5004450;28;20424;-53
2022/11/18 00:36:03;;;;;;;49.63;35.50;;;10.50;99.90;;;;;;5009835;28;20030;-55
2022/11/18 00:38:29;;;;;;;53.38;37.05;;;10.70;99.90;;;;;;5027928;28;20505;-53
2022/11/18 00:41:06;;;;;;;57.65;39.50;;;10.60;99.90;;;;;;5010434;28;20045;-53
2022/11/18 00:43:32;;;;;;;62.40;41.13;;;10.80;99.90;;;;;;5008174;28;20117;-53
2022/11/18 00:45:58;;;;;;;62.63;41.05;;;;;;;;;;5009201;28;20032;-53
2022/11/18 00:48:25;;;;;;;65.53;42.03;;;11.00;99.90;;;;;;5003053;28;20034;-54
2022/11/18 00:50:52;;;;;;;67.95;45.92;;;11.00;99.90;;;;;;5007746;28;20382;-53
2022/11/18 00:53:19;;;;;;;62.67;42.53;;;11.00;99.90;;;;;;5005453;28;20080;-54
2022/11/18 00:55:45;;;;;;;59.75;41.35;;;;;;;;;;5005959;28;20026;-53
2022/11/18 00:58:13;;;;;;;74.03;44.80;;;10.60;99.90;;;;;;5009376;28;20112;-53
2022/11/18 01:00:49;;;;;;;59.00;39.20;;;10.50;99.90;;;;;;5009119;28;20398;-54
2022/11/18 01:03:15;;;;;;;57.05;38.90;;;10.40;99.90;;;;;;5005587;28;20053;-53
2022/11/18 01:05:41;;;;;;;52.28;37.47;;;10.50;99.90;;;;;;5010185;28;20061;-53
2022/11/18 01:08:09;;;;;;;50.20;35.90;;;10.40;99.90;;;;;;4994448;28;20038;-54
2022/11/18 01:10:36;;;;;;;49.15;33.55;;;10.40;99.90;;;;;;5008613;28;20022;-53
2022/11/18 01:13:18;;;;;;;51.13;32.97;;;10.50;99.90;;;;;;5007067;28;20102;-53
2022/11/18 01:15:45;;;;;;;50.63;33.13;;;10.40;99.90;;;;;;5023372;28;20030;-53
2022/11/18 01:18:11;;;;;;;40.55;29.33;;;10.20;99.90;;;;;;5009148;28;20040;-53
2022/11/18 01:20:37;;;;;;;40.42;29.67;;;10.00;99.90;;;;;;5007519;28;20034;-53
2022/11/18 01:23:03;;;;;;;39.20;25.50;;;9.90;99.90;;;;;;5002890;28;20087;-54
2022/11/18 01:25:29;;;;;;;33.53;25.63;;;10.00;99.90;;;;;;5003216;28;20052;-53
2022/11/18 01:27:55;;;;;;;35.45;24.15;;;10.10;99.90;;;;;;5006456;28;20033;-53
2022/11/18 01:30:21;;;;;;;31.95;24.42;;;10.30;99.90;;;;;;5007514;28;20137;-53
2022/11/18 01:32:47;;;;;;;34.40;25.23;;;10.40;99.90;;;;;;5002976;28;20116;-54
2022/11/18 01:35:13;;;;;;;35.70;25.75;;;10.60;99.90;;;;;;5009977;28;20053;-53
2022/11/18 01:37:39;;;;;;;32.78;24.23;;;10.90;99.90;;;;;;5005892;28;20030;-53
2022/11/18 01:40:07;;;;;;;33.45;24.48;;;10.90;99.90;;;;;;5004896;28;20034;-53
2022/11/18 01:42:33;;;;;;;37.50;26.15;;;10.70;99.90;;;;;;5020978;28;20038;-54
2022/11/18 01:45:08;;;;;;;40.28;25.88;;;10.70;99.90;;;;;;5006841;28;20026;-54
2022/11/18 01:47:56;;;;;;;36.22;25.52;;;10.70;99.90;;;;;;5008100;28;20046;-53
2022/11/18 01:50:24;;;;;;;37.00;25.20;;;10.80;99.90;;;;;;5011102;28;20026;-53
2022/11/18 01:52:52;;;;;;;36.75;26.67;;;10.80;99.90;;;;;;5008245;28;20030;-55
2022/11/18 01:55:23;;;;;;;36.67;26.98;;;10.80;99.90;;;;;;5007890;28;20556;-54
2022/11/18 01:57:50;;;;;;;39.15;29.42;;;10.90;99.90;;;;;;5011109;28;20068;-54
2022/11/18 02:00:17;;;;;;;40.83;28.63;;;10.90;99.90;;;;;;5012300;28;20125;-54
2022/11/18 02:02:43;;;;;;;34.83;26.23;;;11.00;99.90;;;;;;5012079;28;20367;-54
2022/11/18 02:05:10;;;;;;;38.08;27.42;;;10.80;99.90;;;;;;5029995;28;20061;-53
2022/11/18 02:07:42;;;;;;;41.28;29.45;;;10.50;99.90;;;;;;5007083;28;20026;-53
2022/11/18 02:10:20;;;;;;;61.58;40.45;;;10.30;99.90;;;;;;5010241;28;20046;-53
2022/11/18 02:12:47;;;;;;;67.97;43.90;;;10.20;99.90;;;;;;5033037;28;20041;-53
2022/11/18 02:15:12;;;;;;;64.25;43.75;;;10.30;99.90;;;;;;5012869;28;20469;-53
2022/11/18 02:18:01;;;;;;;57.80;41.20;;;10.50;99.90;;;;;;5027282;28;20042;-53
2022/11/18 02:20:43;;;;;;;63.75;42.10;;;10.60;99.90;;;;;;5010636;28;20034;-53
2022/11/18 02:23:33;;;;;;;52.97;38.05;;;10.70;99.90;;;;;;5013928;28;20549;-54
2022/11/18 02:26:30;;;;;;;51.97;35.83;;;10.90;99.90;;;;;;5011343;28;20026;-55
2022/11/18 02:29:03;;;;;;;46.80;33.90;;;11.00;99.90;;;;;;4992534;28;20125;-54
2022/11/18 02:31:55;;;;;;;42.78;30.38;;;11.10;99.90;;;;;;4992693;28;20030;-54
2022/11/18 02:34:53;;;;;;;50.45;33.95;;;11.10;99.90;;;;;;4912215;29;20580;-54
2022/11/18 02:37:26;;;;;;;48.50;32.72;;;11.20;99.90;;;;;;4914821;29;20540;-54
2022/11/18 02:40:00;;;;;;;43.47;31.98;;;11.20;99.90;;;;;;4910966;29;20176;-54
2022/11/18 02:42:30;;;;;;;43.83;31.42;;;11.20;99.90;;;;;;4910907;29;20440;-54
2022/11/18 02:45:04;;;;;;;43.00;31.98;;;11.30;99.90;;;;;;4910583;29;20036;-54
2022/11/18 02:47:32;;;;;;;36.20;28.00;;;11.30;99.90;;;;;;4915848;29;20032;-54
2022/11/18 02:50:04;;;;;;;43.22;29.90;;;11.30;99.90;;;;;;4911653;29;20116;-54
2022/11/18 02:52:32;;;;;;;39.33;29.08;;;11.30;99.90;;;;;;4911038;29;20032;-54
2022/11/18 02:55:00;;;;;;;36.55;27.50;;;11.20;99.90;;;;;;4884828;29;20044;-54
2022/11/18 02:57:29;;;;;;;38.67;29.83;;;11.30;99.90;;;;;;4909671;29;20055;-53
2022/11/18 02:59:55;;;;;;;39.15;27.05;;;11.40;99.90;;;;;;4915369;29;20042;-54
2022/11/18 03:02:22;;;;;;;36.75;26.63;;;11.30;99.90;;;;;;4912281;29;20045;-53
2022/11/18 03:04:51;;;;;;;37.60;28.23;;;11.10;99.90;;;;;;4921582;29;20119;-54
2022/11/18 03:07:26;;;;;;;42.60;27.95;;;11.00;99.90;;;;;;4951725;29;20109;-54
2022/11/18 03:09:53;;;;;;;44.35;29.92;;;10.90;99.90;;;;;;4953461;28;20039;-54
2022/11/18 03:12:27;;;;;;;39.78;27.42;;;10.50;99.90;;;;;;5002345;28;20061;-54
2022/11/18 03:15:18;;;;;;;40.47;29.95;;;10.50;99.90;;;;;;5011170;28;20061;-54
2022/11/18 03:18:13;;;;;;;36.83;28.48;;;10.60;99.90;;;;;;5006941;28;20027;-54
2022/11/18 03:20:48;;;;;;;33.30;23.77;;;10.80;99.90;;;;;;5011091;28;20394;-54
2022/11/18 03:23:25;;;;;;;32.83;25.08;;;10.20;99.90;;;;;;5014036;28;20060;-54
2022/11/18 03:26:11;;;;;;;35.92;25.15;;;10.40;99.90;;;;;;5006791;28;20034;-54
2022/11/18 03:28:51;;;;;;;36.20;23.73;;;10.40;99.90;;;;;;5008722;28;20438;-54
2022/11/18 03:31:27;;;;;;;37.05;27.42;;;;;;;;;;5010038;28;20026;-54
2022/11/18 03:34:02;;;;;;;40.08;27.90;;;10.90;99.90;;;;;;5008956;28;20034;-54
2022/11/18 03:36:35;;;;;;;35.60;26.40;;;10.10;99.90;;;;;;5009914;28;20387;-54
2022/11/18 03:39:05;;;;;;;38.50;26.65;;;10.20;99.90;;;;;;5010807;28;20084;-54
2022/11/18 03:41:34;;;;;;;36.83;26.15;;;10.10;99.90;;;;;;5005051;28;20038;-54
2022/11/18 03:44:09;;;;;;;32.08;21.38;;;10.10;99.90;;;;;;5011887;28;20068;-53
2022/11/18 03:46:39;;;;;;;34.88;24.98;;;9.90;99.90;;;;;;5007731;28;20494;-54
2022/11/18 03:49:07;;;;;;;34.05;23.95;;;10.10;99.90;;;;;;5022864;28;20023;-54
2022/11/18 03:51:43;;;;;;;37.05;25.65;;;10.10;99.90;;;;;;5010494;28;20049;-54
2022/11/18 03:54:24;;;;;;;36.10;24.77;;;10.20;99.90;;;;;;5004481;28;20386;-54
2022/11/18 03:57:06;;;;;;;34.40;24.50;;;10.40;99.90;;;;;;5012584;28;20363;-54
2022/11/18 03:59:51;;;;;;;30.63;22.85;;;10.60;99.90;;;;;;5043396;28;20040;-54
2022/11/18 04:02:20;;;;;;;33.05;22.65;;;10.70;99.90;;;;;;5014718;28;20136;-54
2022/11/18 04:04:48;;;;;;;32.38;24.08;;;10.80;99.90;;;;;;5045711;28;20060;-54
2022/11/18 04:07:23;;;;;;;36.80;25.80;;;11.00;99.90;;;;;;5049378;28;20079;-54
2022/11/18 04:10:17;;;;;;;35.25;24.65;;;11.00;99.90;;;;;;5045890;28;20036;-54
2022/11/18 04:12:53;;;;;;;38.47;24.17;;;11.10;99.90;;;;;;5047624;28;20124;-54
2022/11/18 04:15:19;;;;;;;32.17;22.90;;;11.10;99.90;;;;;;5048850;28;20041;-54
2022/11/18 04:17:45;;;;;;;30.23;24.23;;;11.20;99.90;;;;;;5047302;28;20082;-54
2022/11/18 04:20:19;;;;;;;33.13;22.70;;;11.20;99.90;;;;;;5041448;28;20075;-53
2022/11/18 04:22:45;;;;;;;34.25;23.67;;;11.30;99.90;;;;;;5047134;28;20033;-54
2022/11/18 04:25:10;;;;;;;31.92;24.33;;;10.90;99.90;;;;;;5045614;28;20143;-54
2022/11/18 04:27:36;;;;;;;36.78;26.70;;;10.90;99.90;;;;;;5044937;28;20511;-54
2022/11/18 04:30:03;;;;;;;34.13;24.38;;;10.90;99.90;;;;;;5031462;28;20033;-53
2022/11/18 04:32:28;;;;;;;30.05;21.98;;;10.90;99.90;;;;;;5011174;28;20381;-54
2022/11/18 04:34:54;;;;;;;29.30;21.45;;;10.90;99.90;;;;;;5007531;28;20038;-53
2022/11/18 04:37:20;;;;;;;27.38;20.52;;;10.40;99.90;;;;;;5007744;28;20502;-53
2022/11/18 04:39:46;;;;;;;30.58;21.95;;;10.30;99.90;;;;;;5022869;28;20049;-54
2022/11/18 04:42:12;;;;;;;27.95;19.70;;;;;;;;;;5008896;28;20113;-53
2022/11/18 04:44:37;;;;;;;26.10;19.80;;;10.80;99.90;;;;;;5004195;28;20030;-54
2022/11/18 04:47:05;;;;;;;27.75;20.08;;;10.40;99.90;;;;;;5042137;28;20144;-53
2022/11/18 04:49:31;;;;;;;23.75;18.52;;;10.40;99.90;;;;;;5010049;28;20026;-54
2022/11/18 04:51:58;;;;;;;28.48;18.70;;;10.60;99.90;;;;;;5009419;28;20048;-53
2022/11/18 04:54:25;;;;;;;25.70;19.25;;;10.80;99.90;;;;;;5005351;28;20026;-53
2022/11/18 04:56:51;;;;;;;27.50;20.60;;;10.80;99.90;;;;;;5005672;28;20065;-53
2022/11/18 04:59:20;;;;;;;35.10;25.25;;;11.00;99.90;;;;;;5006239;28;20026;-53
2022/11/18 05:01:46;;;;;;;33.63;24.33;;;10.90;99.90;;;;;;5007028;28;20048;-53
2022/11/18 05:04:19;;;;;;;37.22;24.77;;;10.80;99.90;;;;;;5005832;28;20034;-54
2022/11/18 05:06:46;;;;;;;39.58;28.88;;;10.80;99.90;;;;;;5006601;28;20038;-54
2022/11/18 05:09:12;;;;;;;36.78;26.55;;;10.80;99.90;;;;;;5010524;28;20036;-53
2022/11/18 05:14:26;;;;;;;27.55;18.35;;;10.60;99.90;;;;;;5006230;28;20041;-53
2022/11/18 05:16:52;;;;;;;19.95;15.45;;;10.50;99.90;;;;;;5006851;28;20132;-55
2022/11/18 05:19:18;;;;;;;20.95;14.93;;;10.50;99.90;;;;;;5026426;28;20037;-54
2022/11/18 05:21:44;;;;;;;19.25;14.02;;;10.50;99.90;;;;;;5009478;28;20034;-54
2022/11/18 05:24:10;;;;;;;23.63;16.20;;;10.40;99.90;;;;;;5007752;28;20022;-53
2022/11/18 05:26:35;;;;;;;20.90;13.65;;;10.40;99.90;;;;;;5008811;28;20034;-54
2022/11/18 05:29:01;;;;;;;26.70;17.35;;;10.40;99.90;;;;;;5008229;28;20169;-53
2022/11/18 05:31:27;;;;;;;27.60;20.70;;;10.40;99.90;;;;;;5010985;28;20474;-53
2022/11/18 05:33:53;;;;;;;31.38;26.92;;;10.40;99.90;;;;;;5006954;28;20029;-53
2022/11/18 05:36:20;;;;;;;26.67;19.10;;;10.50;99.90;;;;;;5009896;28;20042;-54
2022/11/18 05:38:46;;;;;;;25.85;18.48;;;10.40;99.90;;;;;;5009368;28;20034;-54
2022/11/18 05:43:09;;;;;;;83.57;76.00;;;10.50;99.90;;;;;;5012918;28;20026;-54
2022/11/18 05:44:01;;;;;;;35.03;29.50;;;10.60;99.90;;;;;;5014698;28;20493;-54
2022/11/18 05:46:27;;;;;;;32.67;24.77;;;10.70;99.90;;;;;;5014419;28;20045;-54
2022/11/18 05:48:53;;;;;;;42.08;28.20;;;10.50;99.90;;;;;;5014546;28;20664;-54
2022/11/18 05:51:19;;;;;;;48.83;34.80;;;10.50;99.90;;;;;;5014682;28;20025;-53
2022/11/18 05:53:47;;;;;;;47.03;31.80;;;10.40;99.90;;;;;;5013735;28;20026;-54
2022/11/18 05:56:29;;;;;;;50.97;34.88;;;10.20;99.90;;;;;;5013101;28;20481;-55
2022/11/18 05:58:55;;;;;;;41.88;28.83;;;10.20;99.90;;;;;;5010936;28;20036;-54
2022/11/18 06:01:38;;;;;;;40.83;29.70;;;10.40;99.90;;;;;;5027399;28;20510;-54
2022/11/18 06:04:19;;;;;;;41.42;30.20;;;10.50;99.90;;;;;;5026905;28;20092;-54
2022/11/18 06:06:48;;;;;;;44.08;32.35;;;10.70;99.90;;;;;;5013947;28;20032;-55
2022/11/18 06:09:17;;;;;;;41.17;29.35;;;10.90;99.90;;;;;;5011878;28;20030;-55
2022/11/18 06:11:47;;;;;;;45.35;34.55;;;11.10;99.90;;;;;;5014036;28;20028;-55
2022/11/18 06:14:26;;;;;;;48.47;36.63;;;11.30;99.90;;;;;;5013203;28;20109;-54
2022/11/18 06:16:54;;;;;;;43.30;31.85;;;;;;;;;;5008779;28;20116;-54
2022/11/18 06:19:20;;;;;;;37.45;32.28;;;13.20;99.90;;;;;;5011261;28;20048;-55
2022/11/18 06:21:47;;;;;;;40.88;26.88;;;;;;;;;;5013868;28;20038;-55
2022/11/18 06:24:13;;;;;;;43.45;29.65;;;14.20;99.90;;;;;;5011180;28;20025;-54
2022/11/18 06:26:40;;;;;;;42.83;31.15;;;14.50;99.90;;;;;;5013241;28;20038;-52
2022/11/18 06:29:07;;;;;;;42.95;29.63;;;;;;;;;;5009344;28;20037;-55
2022/11/18 06:31:33;;;;;;;35.83;26.42;;;14.40;99.90;;;;;;5011723;28;20022;-54
2022/11/18 06:33:59;;;;;;;34.38;25.38;;;14.40;99.90;;;;;;5011044;28;20041;-55
2022/11/18 06:36:25;;;;;;;30.58;22.83;;;14.20;99.90;;;;;;5008966;28;20402;-55
2022/11/18 06:38:51;;;;;;;30.80;24.08;;;13.80;99.90;;;;;;5009750;28;20037;-56
2022/11/18 06:41:17;;;;;;;34.25;24.92;;;13.60;99.90;;;;;;5008513;28;20084;-56
2022/11/18 06:43:42;;;;;;;33.65;23.00;;;13.70;99.90;;;;;;5006794;28;20430;-56
2022/11/18 06:49:01;;;;;;;34.53;24.70;;;12.50;99.90;;;;;;5009173;28;20493;-57
2022/11/18 06:51:28;;;;;;;38.58;26.08;;;12.30;99.90;;;;;;5009909;28;20044;-55
2022/11/18 06:53:53;;;;;;;40.20;26.13;;;12.00;99.90;;;;;;5005417;28;20034;-54
2022/11/18 06:56:21;;;;;;;32.47;24.38;;;12.00;99.90;;;;;;5011428;28;20076;-56
2022/11/18 06:58:46;;;;;;;33.58;24.02;;;11.70;99.90;;;;;;5011594;28;20038;-56
2022/11/18 07:01:17;;;;;;;30.42;22.95;;;11.60;99.90;;;;;;5012678;28;20042;-56
2022/11/18 07:03:45;;;;;;;39.58;26.27;;;11.50;99.90;;;;;;5009587;28;20037;-54
2022/11/18 07:06:13;;;;;;;37.08;28.08;;;11.60;99.90;;;;;;5008598;28;20466;-54
2022/11/18 07:08:40;;;;;;;34.35;22.98;;;11.60;99.90;;;;;;5010586;28;20022;-55
2022/11/18 07:11:07;;;;;;;29.67;23.15;;;;;;;;;;5010605;28;20026;-54
2022/11/18 07:13:34;;;;;;;31.92;25.02;;;;;;;;;;5012244;28;20035;-55
2022/11/18 07:16:08;;;;;;;32.90;23.33;;;;;;;;;;5009392;28;20018;-54
2022/11/18 07:18:38;;;;;;;32.22;23.95;;;11.90;99.90;;;;;;5011216;28;20034;-55
2022/11/18 07:21:14;;;;;;;28.52;22.30;;;11.80;99.90;;;;;;5008910;28;20165;-54
2022/11/18 07:23:40;;;;;;;30.25;24.00;;;11.70;99.90;;;;;;5008185;28;20030;-54
2022/11/18 07:26:06;;;;;;;30.80;23.50;;;11.80;99.90;;;;;;5010672;28;20040;-55
2022/11/18 07:28:32;;;;;;;31.42;24.02;;;11.80;99.90;;;;;;5002802;28;20399;-56
2022/11/18 07:31:01;;;;;;;32.80;22.67;;;11.80;99.90;;;;;;5009944;28;20038;-55
2022/11/18 07:33:27;;;;;;;30.90;22.30;;;11.80;99.90;;;;;;5009152;28;20045;-56
2022/11/18 07:35:53;;;;;;;31.48;22.23;;;11.70;99.90;;;;;;5012505;28;20120;-55
2022/11/18 07:38:18;;;;;;;34.20;25.15;;;11.70;99.90;;;;;;5004220;28;20053;-55
2022/11/18 07:40:44;;;;;;;34.65;25.75;;;11.80;99.90;;;;;;5010750;28;20138;-55
2022/11/18 07:43:10;;;;;;;33.28;24.92;;;11.90;99.90;;;;;;5009229;28;20037;-54
2022/11/18 07:45:35;;;;;;;42.72;31.27;;;11.90;99.90;;;;;;5011638;28;20076;-54
2022/11/18 07:48:01;;;;;;;40.58;29.70;;;11.90;99.90;;;;;;5009249;28;20065;-55
2022/11/18 07:50:27;;;;;;;46.00;36.10;;;11.80;99.90;;;;;;5011554;28;20103;-55
2022/11/18 07:52:56;;;;;;;65.93;46.47;;;11.90;99.90;;;;;;5037870;28;20041;-55
2022/11/18 07:55:22;;;;;;;162.95;92.78;;;12.00;99.90;;;;;;5008599;28;20034;-54
2022/11/18 07:57:48;;;;;;;91.18;58.55;;;11.90;99.90;;;;;;5010102;28;20435;-54
2022/11/18 08:00:14;;;;;;;52.53;36.60;;;12.10;99.90;;;;;;5010985;28;20066;-55
2022/11/18 08:02:42;;;;;;;65.88;49.33;;;12.30;99.90;;;;;;5007842;28;20022;-55
2022/11/18 08:05:08;;;;;;;58.80;38.70;;;12.40;99.90;;;;;;5009971;28;20057;-54
2022/11/18 08:07:34;;;;;;;56.10;36.42;;;12.50;99.90;;;;;;5010515;28;20486;-55
2022/11/18 08:10:02;;;;;;;49.17;33.45;;;12.20;99.90;;;;;;5009862;28;20045;-56
2022/11/18 08:12:29;;;;;;;46.60;30.77;;;12.00;99.90;;;;;;5009814;28;20546;-55
2022/11/18 08:14:56;;;;;;;46.65;30.60;;;;;;;;;;5005960;28;20199;-55
2022/11/18 08:17:23;;;;;;;39.80;29.55;;;;;;;;;;5007428;28;20485;-55
2022/11/18 08:19:49;;;;;;;37.28;28.42;;;12.30;99.90;;;;;;5009264;28;20079;-54
2022/11/18 08:22:17;;;;;;;48.80;31.85;;;12.40;99.90;;;;;;5035865;28;20050;-55
2022/11/18 08:24:44;;;;;;;81.32;49.75;;;12.50;99.90;;;;;;5004631;28;20453;-56
2022/11/18 08:27:09;;;;;;;91.68;55.78;;;12.60;99.90;;;;;;5010480;28;20029;-56
2022/11/18 08:29:35;;;;;;;78.50;47.95;;;12.60;99.90;;;;;;5006573;28;20105;-55
2022/11/18 08:32:01;;;;;;;61.03;42.10;;;;;;;;;;5009589;28;20025;-55
2022/11/18 08:34:27;;;;;;;59.40;40.75;;;;;;;;;;5009682;28;20025;-56
2022/11/18 08:36:54;;;;;;;55.78;38.45;;;13.00;99.90;;;;;;5007160;28;20049;-56
2022/11/18 08:39:19;;;;;;;60.33;41.35;;;13.10;99.90;;;;;;5006872;28;20122;-56
2022/11/18 08:41:46;;;;;;;54.88;39.15;;;13.20;99.90;;;;;;5008726;28;20030;-56
2022/11/18 08:44:15;;;;;;;51.85;36.95;;;13.10;99.90;;;;;;5006480;28;20033;-54
2022/11/18 08:46:45;;;;;;;50.08;36.45;;;13.10;99.90;;;;;;5007436;28;20351;-54
2022/11/18 08:49:12;;;;;;;50.65;34.63;;;;;;;;;;5002162;28;20037;-55
2022/11/18 08:51:38;;;;;;;49.08;34.75;;;;;;;;;;5010278;28;20025;-55
2022/11/18 08:54:04;;;;;;;48.15;34.45;;;;;;;;;;5009860;28;20512;-55
2022/11/18 08:56:30;;;;;;;58.03;36.55;;;;;;;;;;5023161;28;20042;-55
2022/11/18 08:58:56;;;;;;;52.42;35.95;;;13.30;99.90;;;;;;5010478;28;20033;-55
2022/11/18 09:01:21;;;;;;;52.63;35.88;;;13.20;99.90;;;;;;5006742;28;20040;-56
2022/11/18 09:03:48;;;;;;;46.05;33.10;;;13.20;99.90;;;;;;5000879;28;20132;-55
2022/11/18 09:06:19;;;;;;;44.95;32.53;;;13.10;99.90;;;;;;5007863;28;20049;-55
2022/11/18 09:08:46;;;;;;;42.10;31.00;;;13.10;99.90;;;;;;5006408;28;20030;-54
2022/11/18 09:11:18;;;;;;;49.00;36.22;;;13.10;99.90;;;;;;5005684;28;20042;-55
2022/11/18 09:13:44;;;;;;;50.83;36.65;;;13.00;99.90;;;;;;5002225;28;20457;-54
2022/11/18 09:16:10;;;;;;;55.65;37.45;;;12.90;99.90;;;;;;5003693;28;20026;-55
2022/11/18 09:18:36;;;;;;;55.20;38.03;;;13.00;99.90;;;;;;5009859;28;20084;-55
2022/11/18 09:21:05;;;;;;;56.33;40.45;;;13.00;99.90;;;;;;5008719;28;20046;-56
2022/11/18 09:23:33;;;;;;;72.93;50.25;;;13.00;99.90;;;;;;5008521;28;20033;-54
2022/11/18 09:26:05;;;;;;;90.15;57.88;;;13.00;99.90;;;;;;5007595;28;20030;-56
2022/11/18 09:28:30;;;;;;;71.50;52.97;;;13.10;99.90;;;;;;5020687;28;20490;-55
2022/11/18 09:30:56;;;;;;;61.72;46.20;;;13.20;99.90;;;;;;5007791;28;20045;-55
2022/11/18 09:33:22;;;;;;;53.70;41.75;;;13.30;99.90;;;;;;5004433;28;20041;-54
2022/11/18 09:35:48;;;;;;;64.30;43.30;;;13.30;99.90;;;;;;5008319;28;20092;-54
2022/11/18 09:38:14;;;;;;;64.15;47.22;;;13.10;99.90;;;;;;4997019;28;20034;-55
2022/11/18 09:41:04;;;;;;;60.00;46.78;;;12.90;99.90;;;;;;5006965;28;20113;-55
2022/11/18 09:43:30;;;;;;;46.63;34.75;;;;;;;;;;5008132;28;20109;-55
2022/11/18 09:46:07;;;;;;;42.72;31.83;;;12.80;99.90;;;;;;5009622;28;20109;-54
2022/11/18 09:51:19;;;;;;;38.15;29.50;;;12.90;99.90;;;;;;5000578;28;20084;-57
2022/11/18 09:53:46;;;;;;;34.00;23.63;;;;;;;;;;5009410;28;20033;-59
2022/11/18 09:56:14;;;;;;;33.88;25.58;;;12.70;99.90;;;;;;5007422;28;20030;-57
2022/11/18 09:58:41;;;;;;;38.85;25.48;;;12.60;99.90;;;;;;5003618;28;20109;-58
2022/11/18 10:01:18;;;;;;;34.78;23.15;;;12.50;99.90;;;;;;5001925;28;20398;-56
2022/11/18 10:03:44;;;;;;;32.20;24.52;;;12.30;99.90;;;;;;5008166;28;20085;-60
2022/11/18 10:06:25;;;;;;;35.33;26.58;;;12.30;99.90;;;;;;5003955;28;20046;-55
2022/11/18 10:09:23;;;;;;;30.67;22.30;;;12.50;99.90;;;;;;5005163;28;20038;-55
2022/11/18 10:12:11;;;;;;;27.13;19.85;;;12.70;99.90;;;;;;5008575;28;20030;-58
2022/11/18 10:14:55;;;;;;;31.52;24.08;;;12.50;99.90;;;;;;5001844;28;20402;-59
2022/11/18 10:17:53;;;;;;;30.75;23.13;;;11.00;99.90;;;;;;5000826;28;20128;-55
2022/11/18 10:20:48;;;;;;;27.73;21.75;;;12.60;99.90;;;;;;5003425;28;20034;-60
2022/11/18 10:23:36;;;;;;;29.48;22.75;;;12.80;99.90;;;;;;5002437;28;20485;-57
2022/11/18 10:26:02;;;;;;;28.83;21.83;;;12.70;99.90;;;;;;5012083;28;20038;-56
2022/11/18 10:28:30;;;;;;;28.80;21.10;;;12.80;99.90;;;;;;5007630;28;20113;-55
2022/11/18 10:31:09;;;;;;;24.00;19.65;;;13.00;99.90;;;;;;5004524;28;20488;-60
2022/11/18 10:33:35;;;;;;;28.67;21.30;;;;;;;;;;5011133;28;20042;-56
2022/11/18 10:36:16;;;;;;;23.00;19.33;;;13.70;99.90;;;;;;5010894;28;20121;-57
2022/11/18 10:38:43;;;;;;;23.50;19.02;;;13.80;99.90;;;;;;5009667;28;20041;-58
2022/11/18 10:41:13;;;;;;;25.48;17.63;;;14.00;99.90;;;;;;5011313;28;20065;-59
2022/11/18 10:43:52;;;;;;;21.80;17.88;;;13.80;99.90;;;;;;5012960;28;20061;-56
2022/11/18 10:46:24;;;;;;;26.70;19.13;;;14.50;99.90;;;;;;5005778;28;20033;-57
2022/11/18 10:49:09;;;;;;;29.15;20.33;;;14.50;99.90;;;;;;5010891;28;20042;-59
2022/11/18 10:51:44;;;;;;;25.77;18.35;;;14.40;99.90;;;;;;5008645;28;20030;-57
2022/11/18 10:54:22;;;;;;;25.67;20.52;;;14.20;99.90;;;;;;5010014;28;20042;-56
2022/11/18 10:56:51;;;;;;;26.00;20.80;;;14.70;99.90;;;;;;5011016;28;20493;-55
2022/11/18 10:59:32;;;;;;;24.67;19.50;;;14.30;99.90;;;;;;5008929;28;20022;-56
2022/11/18 11:02:17;;;;;;;22.58;18.02;;;14.80;99.90;;;;;;5021351;28;20066;-54
2022/11/18 11:04:48;;;;;;;27.35;18.42;;;15.10;99.90;;;;;;5014890;28;20041;-50
2022/11/18 11:07:35;;;;;;;28.45;21.45;;;15.00;99.90;;;;;;5010839;28;20045;-52
2022/11/18 11:10:03;;;;;;;27.77;19.77;;;15.10;99.90;;;;;;5003568;28;20528;-50
2022/11/18 11:12:46;;;;;;;24.27;18.92;;;15.30;99.90;;;;;;5011716;28;20022;-51
2022/11/18 11:15:24;;;;;;;21.30;16.98;;;14.80;99.90;;;;;;5006107;28;20061;-53
2022/11/18 11:18:40;;;;;;;22.92;17.52;;;14.70;99.90;;;;;;5010850;28;20040;-53
2022/11/18 11:20:39;;;;;;;23.92;17.73;;;;;;;;;;5007759;28;20522;-53
2022/11/18 11:23:14;;;;;;;23.40;18.23;;;14.80;99.90;;;;;;4996222;28;20038;-52
2022/11/18 11:26:00;;;;;;;27.98;19.30;;;15.10;99.90;;;;;;5005545;28;20416;-47
2022/11/18 11:28:31;;;;;;;26.95;18.52;;;15.10;99.90;;;;;;5001493;28;20494;-52
2022/11/18 11:31:23;;;;;;;27.65;22.02;;;14.70;99.90;;;;;;5002709;28;20045;-53
2022/11/18 11:34:12;;;;;;;23.65;19.25;;;15.60;99.90;;;;;;4983602;28;20038;-52
2022/11/18 11:36:46;;;;;;;28.00;18.33;;;;;;;;;;4980261;28;20034;-58
2022/11/18 11:39:28;;;;;;;20.40;16.55;;;;;;;;;;4980339;28;20077;-50
2022/11/18 11:42:26;;;;;;;25.35;18.42;;;;;;;;;;5006611;28;20057;-54
2022/11/18 11:44:55;;;;;;;24.10;17.80;;;;;;;;;;4953288;28;20113;-55
2022/11/18 11:47:45;;;;;;;20.55;16.75;;;15.70;99.90;;;;;;4953049;28;20043;-51
2022/11/18 11:50:32;;;;;;;21.10;16.23;;;16.00;99.90;;;;;;4954227;28;20130;-49
2022/11/18 11:52:58;;;;;;;20.40;16.27;;;;;;;;;;4983758;28;20094;-55
2022/11/18 11:55:42;;;;;;;17.92;15.15;;;;;;;;;;4952391;29;20035;-59
2022/11/18 11:58:33;;;;;;;19.80;15.38;;;18.40;99.90;;;;;;4952208;29;20393;-54
2022/11/18 12:01:32;;;;;;;17.50;14.70;;;18.40;99.90;;;;;;4951107;28;20398;-52
2022/11/18 12:04:16;;;;;;;17.75;15.65;;;;;;;;;;4950701;29;20027;-58
2022/11/18 12:06:48;;;;;;;19.75;14.75;;;18.10;99.90;;;;;;4951962;28;20510;-51
2022/11/18 12:09:58;;;;;;;19.45;16.33;;;17.90;99.90;;;;;;4950747;29;20031;-53
2022/11/18 12:12:37;;;;;;;19.17;14.32;;;;;;;;;;4950541;29;20502;-59
2022/11/18 12:15:06;;;;;;;20.13;15.68;;;;;;;;;;4934659;29;20050;-51
2022/11/18 12:17:37;;;;;;;18.50;15.52;;;;;;;;;;4935296;28;20431;-52
2022/11/18 12:20:36;;;;;;;20.55;14.48;;;;;;;;;;4968952;28;20081;-52
2022/11/18 12:23:29;;;;;;;17.20;13.88;;;18.40;99.90;;;;;;5029938;28;20049;-51
2022/11/18 12:26:32;;;;;;;17.88;13.93;;;18.40;99.90;;;;;;5023024;28;20053;-52
2022/11/18 12:29:18;;;;;;;18.55;14.15;;;18.30;99.90;;;;;;5028689;28;20052;-50
2022/11/18 12:31:58;;;;;;;17.35;12.98;;;18.60;99.90;;;;;;5028292;28;20049;-51
2022/11/18 12:34:39;;;;;;;16.42;13.63;;;18.10;99.90;;;;;;5025622;28;20029;-53
2022/11/18 12:37:39;;;;;;;15.57;12.50;;;17.70;99.90;;;;;;4993373;28;20429;-55
2022/11/18 12:40:05;;;;;;;15.90;13.15;;;;;;;;;;4992764;28;20037;-56
2022/11/18 12:45:40;;;;;;;15.45;12.40;;;16.90;99.90;;;;;;5007488;28;20092;-53
2022/11/18 12:48:24;;;;;;;17.23;12.88;;;;;;;;;;5007735;28;20065;-57
2022/11/18 12:50:52;;;;;;;19.50;13.80;;;;;;;;;;5008140;28;20045;-54
2022/11/18 12:53:37;;;;;;;16.63;12.68;;;;;;;;;;5003088;28;20962;-55
2022/11/18 12:56:33;;;;;;;16.08;11.70;;;16.90;99.90;;;;;;5005979;28;20049;-54
2022/11/18 12:59:00;;;;;;;16.10;11.73;;;17.20;99.90;;;;;;4993278;28;20534;-54
2022/11/18 13:01:30;;;;;;;14.00;11.25;;;17.00;99.90;;;;;;4987878;28;20046;-53
2022/11/18 13:04:15;;;;;;;15.18;11.25;;;16.70;99.90;;;;;;4987692;28;20038;-54
2022/11/18 13:06:42;;;;;;;13.52;11.50;;;;;;;;;;4986622;28;20038;-57
2022/11/18 13:09:14;;;;;;;14.68;10.73;;;;;;;;;;4987202;28;20057;-54
2022/11/18 13:11:46;;;;;;;14.57;10.85;;;;;;;;;;4986204;28;20549;-53
2022/11/18 13:19:40;;;;;;;12.07;9.85;;;18.10;99.90;;;;;;5009567;28;20041;-53
2022/11/18 13:25:00;;;;;;;14.63;10.25;;;17.70;99.90;;;;;;5003772;28;20446;-56
2022/11/18 13:27:48;;;;;;;14.63;11.82;;;17.90;99.90;;;;;;5001298;28;20022;-53